createdAt,value
2022-10-05T00:00:17.667Z,15.98
2022-10-05T00:02:44.599Z,10.07
2022-10-05T00:05:45.634Z,13.70
2022-10-05T00:08:15.664Z,13.85
2022-10-05T00:10:42.708Z,14.38
2022-10-05T00:13:20.451Z,10.60
2022-10-05T00:15:47.516Z,11.15
2022-10-05T00:18:19.752Z,12.17
2022-10-05T00:20:48.046Z,11.57
2022-10-05T00:23:34.899Z,12.32
2022-10-05T00:26:18.534Z,9.57
2022-10-05T00:28:45.114Z,9.73
2022-10-05T00:31:26.763Z,12.17
2022-10-05T00:33:54.960Z,12.73
2022-10-05T00:36:21.906Z,13.48
2022-10-05T00:38:48.543Z,11.55
2022-10-05T00:41:22.913Z,11.95
2022-10-05T00:44:13.063Z,12.10
2022-10-05T00:47:10.844Z,10.88
2022-10-05T00:49:46.439Z,12.45
2022-10-05T00:52:34.715Z,9.93
2022-10-05T00:55:33.744Z,11.90
2022-10-05T00:58:03.058Z,11.07
2022-10-05T01:00:32.605Z,13.05
2022-10-05T01:03:18.605Z,9.95
2022-10-05T01:06:14.704Z,11.18
2022-10-05T01:09:00.496Z,11.25
2022-10-05T01:11:34.160Z,11.37
2022-10-05T01:14:06.501Z,11.93
2022-10-05T01:16:48.395Z,12.15
2022-10-05T01:19:15.311Z,12.07
2022-10-05T01:22:00.842Z,11.23
2022-10-05T01:25:03.124Z,8.57
2022-10-05T01:27:50.951Z,9.80
2022-10-05T01:30:20.086Z,10.70
2022-10-05T01:33:04.291Z,13.20
2022-10-05T01:36:08.048Z,13.13
2022-10-05T01:39:08.865Z,11.93
2022-10-05T01:41:44.883Z,12.10
2022-10-05T01:44:31.134Z,13.65
2022-10-05T01:47:08.403Z,11.63
2022-10-05T01:49:37.771Z,17.67
2022-10-05T01:52:22.854Z,12.23
2022-10-05T01:55:01.404Z,9.35
2022-10-05T01:57:48.243Z,13.00
2022-10-05T02:00:17.911Z,12.63
2022-10-05T02:02:48.824Z,15.35
2022-10-05T02:05:26.172Z,13.30
2022-10-05T02:08:15.457Z,13.20
2022-10-05T02:10:51.718Z,14.82
2022-10-05T02:13:48.935Z,14.52
2022-10-05T02:16:37.482Z,10.20
2022-10-05T02:19:09.687Z,12.63
2022-10-05T02:21:36.768Z,10.13
2022-10-05T02:24:12.752Z,14.15
2022-10-05T02:26:40.433Z,11.52
2022-10-05T02:29:11.479Z,15.05
2022-10-05T02:31:50.430Z,13.77
2022-10-05T02:34:27.925Z,15.85
2022-10-05T02:37:12.479Z,15.05
2022-10-05T02:40:06.144Z,12.68
2022-10-05T02:43:09.551Z,14.77
2022-10-05T02:45:56.378Z,16.27
2022-10-05T02:48:34.096Z,11.43
2022-10-05T02:51:26.061Z,11.70
2022-10-05T02:54:25.207Z,12.10
2022-10-05T02:57:09.959Z,12.18
2022-10-05T03:00:08.476Z,10.17
2022-10-05T03:02:47.992Z,12.27
2022-10-05T03:05:20.325Z,10.63
2022-10-05T03:08:07.492Z,14.50
2022-10-05T03:11:02.767Z,15.50
2022-10-05T03:14:01.688Z,14.50
2022-10-05T03:16:34.222Z,12.10
2022-10-05T03:19:03.841Z,12.77
2022-10-05T03:21:48.258Z,10.10
2022-10-05T03:24:39.092Z,11.70
2022-10-05T03:27:29.044Z,14.53
2022-10-05T03:30:07.636Z,16.05
2022-10-05T03:32:43.264Z,13.45
2022-10-05T03:35:23.683Z,12.27
2022-10-05T03:37:59.111Z,10.95
2022-10-05T03:40:32.672Z,12.00
2022-10-05T03:42:59.170Z,11.15
2022-10-05T03:46:03.300Z,11.52
2022-10-05T03:48:38.585Z,10.07
2022-10-05T03:51:31.880Z,10.85
2022-10-05T03:54:21.723Z,14.97
2022-10-05T03:57:02.468Z,9.32
2022-10-05T03:59:46.775Z,11.30
2022-10-05T04:02:24.657Z,10.65
2022-10-05T04:05:18.330Z,12.30
2022-10-05T04:07:51.812Z,10.87
2022-10-05T04:10:51.826Z,10.70
2022-10-05T04:13:40.591Z,10.40
2022-10-05T04:16:22.342Z,13.63
2022-10-05T04:19:04.927Z,8.18
2022-10-05T04:21:50.363Z,11.17
2022-10-05T04:24:23.480Z,10.30
2022-10-05T04:27:00.517Z,10.63
2022-10-05T04:29:47.718Z,9.48
2022-10-05T04:32:22.625Z,8.93
2022-10-05T04:35:08.600Z,8.27
2022-10-05T04:38:01.989Z,10.70
2022-10-05T04:40:50.011Z,8.43
2022-10-05T04:43:54.563Z,10.63
2022-10-05T04:46:55.063Z,8.07
2022-10-05T04:49:36.640Z,7.87
2022-10-05T04:52:13.426Z,9.55
2022-10-05T04:54:47.461Z,8.60
2022-10-05T04:57:21.780Z,9.63
2022-10-05T05:00:02.876Z,7.68
2022-10-05T05:03:11.674Z,8.67
2022-10-05T05:05:53.106Z,10.43
2022-10-05T05:08:41.574Z,9.57
2022-10-05T05:11:17.374Z,7.13
2022-10-05T05:13:57.302Z,9.15
2022-10-05T05:16:39.750Z,6.00
2022-10-05T05:19:06.260Z,6.35
2022-10-05T05:22:00.027Z,5.53
2022-10-05T05:24:48.588Z,6.47
2022-10-05T05:27:58.248Z,4.47
2022-10-05T05:30:32.831Z,7.40
2022-10-05T05:33:41.035Z,4.57
2022-10-05T05:36:27.060Z,5.75
2022-10-05T05:39:12.892Z,4.40
2022-10-05T05:41:41.672Z,3.63
2022-10-05T05:44:22.489Z,3.13
2022-10-05T05:47:03.558Z,3.70
2022-10-05T05:49:54.995Z,4.00
2022-10-05T05:52:35.024Z,6.32
2022-10-05T05:55:11.847Z,3.65
2022-10-05T05:57:46.627Z,4.47
2022-10-05T06:00:24.148Z,3.72
2022-10-05T06:03:13.782Z,3.67
2022-10-05T06:05:54.333Z,5.35
2022-10-05T06:08:35.849Z,3.65
2022-10-05T06:11:11.528Z,4.90
2022-10-05T06:13:42.896Z,6.35
2022-10-05T06:16:24.217Z,4.47
2022-10-05T06:19:10.828Z,5.43
2022-10-05T06:21:47.539Z,5.55
2022-10-05T06:24:29.843Z,6.13
2022-10-05T06:27:13.996Z,5.63
2022-10-05T06:30:02.509Z,5.53
2022-10-05T06:32:36.296Z,5.07
2022-10-05T06:35:37.311Z,11.70
2022-10-05T06:38:27.501Z,6.37
2022-10-05T06:41:23.088Z,5.47
2022-10-05T06:43:52.796Z,5.25
2022-10-05T06:46:32.025Z,6.13
2022-10-05T06:49:25.424Z,7.68
2022-10-05T06:51:58.094Z,5.53
2022-10-05T06:54:43.256Z,8.02
2022-10-05T06:57:45.429Z,6.57
2022-10-05T07:00:18.993Z,8.80
2022-10-05T07:02:57.504Z,6.47
2022-10-05T07:05:42.187Z,7.80
2022-10-05T07:08:28.344Z,5.95
2022-10-05T07:11:35.422Z,6.32
2022-10-05T07:14:27.589Z,7.60
2022-10-05T07:17:26.375Z,5.82
2022-10-05T07:20:28.976Z,6.17
2022-10-05T07:23:23.650Z,5.50
2022-10-05T07:26:09.342Z,6.55
2022-10-05T07:28:47.969Z,7.03
2022-10-05T07:31:28.418Z,5.18
2022-10-05T07:34:05.683Z,6.37
2022-10-05T07:37:08.816Z,8.38
2022-10-05T07:40:05.777Z,5.63
2022-10-05T07:43:16.328Z,4.95
2022-10-05T07:45:58.293Z,8.57
2022-10-05T07:48:56.843Z,8.27
2022-10-05T07:51:38.630Z,5.28
2022-10-05T07:54:23.917Z,5.93
2022-10-05T07:57:21.048Z,4.47
2022-10-05T08:00:03.415Z,6.65
2022-10-05T08:02:42.671Z,7.30
2022-10-05T08:05:19.754Z,10.73
2022-10-05T08:07:50.400Z,10.75
2022-10-05T08:10:24.943Z,10.32
2022-10-05T08:13:16.307Z,13.23
2022-10-05T08:15:48.344Z,8.47
2022-10-05T08:18:42.055Z,5.45
2022-10-05T08:21:11.968Z,5.45
2022-10-05T08:23:44.555Z,7.22
2022-10-05T08:26:40.852Z,6.00
2022-10-05T08:29:42.071Z,6.93
2022-10-05T08:32:24.386Z,7.20
2022-10-05T08:35:17.769Z,8.38
2022-10-05T08:37:46.131Z,7.57
2022-10-05T08:40:18.875Z,8.77
2022-10-05T08:43:36.804Z,8.77
2022-10-05T08:46:18.211Z,8.98
2022-10-05T08:48:59.817Z,6.65
2022-10-05T08:51:41.408Z,7.18
2022-10-05T08:54:20.000Z,6.70
2022-10-05T08:56:58.734Z,7.80
2022-10-05T09:00:07.096Z,6.03
2022-10-05T09:03:05.680Z,5.80
2022-10-05T09:06:11.792Z,5.32
2022-10-05T09:08:47.617Z,5.97
2022-10-05T09:11:14.142Z,5.23
2022-10-05T09:14:18.683Z,5.57
2022-10-05T09:17:09.424Z,6.20
2022-10-05T09:19:58.174Z,9.10
2022-10-05T09:22:50.300Z,7.28
2022-10-05T09:25:22.965Z,5.37
2022-10-05T09:27:57.649Z,4.85
2022-10-05T09:31:02.383Z,3.72
2022-10-05T09:33:58.657Z,4.57
2022-10-05T09:36:57.288Z,5.07
2022-10-05T09:39:42.473Z,3.40
2022-10-05T09:42:14.507Z,5.15
2022-10-05T09:45:01.547Z,3.97
2022-10-05T09:47:54.856Z,3.65
2022-10-05T09:50:49.531Z,7.55
2022-10-05T09:53:52.629Z,4.70
2022-10-05T09:56:37.284Z,3.53
2022-10-05T09:59:33.135Z,4.75
2022-10-05T10:02:24.449Z,5.03
2022-10-05T10:05:22.359Z,5.10
2022-10-05T10:08:04.515Z,3.73
2022-10-05T10:10:52.937Z,4.55
2022-10-05T10:13:32.536Z,5.18
2022-10-05T10:16:12.152Z,3.80
2022-10-05T10:19:03.144Z,4.78
2022-10-05T10:22:05.113Z,5.43
2022-10-05T10:25:21.290Z,3.85
2022-10-05T10:28:06.800Z,4.22
2022-10-05T10:31:04.440Z,6.45
2022-10-05T10:34:03.696Z,5.15
2022-10-05T10:36:57.325Z,7.17
2022-10-05T10:40:01.477Z,6.47
2022-10-05T10:42:46.296Z,8.57
2022-10-05T10:45:51.813Z,6.28
2022-10-05T10:48:30.660Z,6.30
2022-10-05T10:51:09.317Z,5.83
2022-10-05T10:53:56.032Z,8.88
2022-10-05T10:56:48.810Z,5.60
2022-10-05T10:59:34.500Z,8.50
2022-10-05T11:02:47.231Z,9.35
2022-10-05T11:05:35.865Z,5.60
2022-10-05T11:08:08.728Z,8.50
2022-10-05T11:10:46.119Z,8.23
2022-10-05T11:13:34.281Z,6.68
2022-10-05T11:16:25.423Z,8.00
2022-10-05T11:19:05.987Z,9.23
2022-10-05T11:21:53.608Z,9.88
2022-10-05T11:25:00.596Z,8.02
2022-10-05T11:27:36.993Z,9.50
2022-10-05T11:30:22.951Z,8.48
2022-10-05T11:33:22.277Z,6.03
2022-10-05T11:36:19.640Z,7.05
2022-10-05T11:39:15.542Z,6.07
2022-10-05T11:41:54.434Z,5.85
2022-10-05T11:44:50.466Z,7.80
2022-10-05T11:47:37.019Z,9.27
2022-10-05T11:50:16.630Z,7.55
2022-10-05T11:53:01.641Z,5.47
2022-10-05T11:55:43.820Z,6.82
2022-10-05T11:58:25.285Z,7.50
2022-10-05T12:01:15.496Z,4.57
2022-10-05T12:04:14.205Z,7.80
2022-10-05T12:07:02.781Z,5.22
2022-10-05T12:10:09.658Z,8.57
2022-10-05T12:12:54.659Z,6.05
2022-10-05T12:15:43.444Z,9.03
2022-10-05T12:18:21.154Z,5.85
2022-10-05T12:21:03.471Z,5.93
2022-10-05T12:23:46.331Z,3.97
2022-10-05T12:26:15.633Z,9.23
2022-10-05T12:28:49.720Z,6.47
2022-10-05T12:31:35.376Z,8.23
2022-10-05T12:34:13.981Z,7.18
2022-10-05T12:37:09.016Z,6.80
2022-10-05T12:40:13.058Z,4.38
2022-10-05T12:43:12.026Z,3.70
2022-10-05T12:46:17.626Z,5.90
2022-10-05T12:49:02.810Z,4.20
2022-10-05T12:51:37.982Z,6.45
2022-10-05T12:54:29.602Z,6.60
2022-10-05T12:57:07.778Z,5.67
2022-10-05T12:59:55.090Z,5.00
2022-10-05T13:02:50.856Z,7.28
2022-10-05T13:05:36.579Z,6.63
2022-10-05T13:08:21.377Z,8.75
2022-10-05T13:11:14.090Z,5.80
2022-10-05T13:14:11.347Z,5.70
2022-10-05T13:16:42.809Z,7.57
2022-10-05T13:19:39.107Z,6.82
2022-10-05T13:22:34.160Z,6.68
2022-10-05T13:25:27.128Z,6.63
2022-10-05T13:28:12.593Z,4.95
2022-10-05T13:30:45.460Z,6.57
2022-10-05T13:33:22.110Z,7.43
2022-10-05T13:36:05.156Z,5.30
2022-10-05T13:38:53.900Z,6.67
2022-10-05T13:41:59.541Z,7.43
2022-10-05T13:44:48.889Z,6.82
2022-10-05T13:47:32.779Z,9.48
2022-10-05T13:50:05.223Z,5.15
2022-10-05T13:52:47.256Z,5.57
2022-10-05T13:55:39.384Z,6.05
2022-10-05T13:58:12.215Z,4.18
2022-10-05T14:00:54.640Z,7.47
2022-10-05T14:03:34.757Z,5.65
2022-10-05T14:06:10.780Z,5.47
2022-10-05T14:08:49.689Z,12.20
2022-10-05T14:11:27.139Z,6.65
2022-10-05T14:14:16.134Z,3.97
2022-10-05T14:16:56.105Z,4.65
2022-10-05T14:19:31.268Z,5.93
2022-10-05T14:22:03.224Z,4.68
2022-10-05T14:24:44.601Z,8.07
2022-10-05T14:27:25.467Z,3.85
2022-10-05T14:29:59.599Z,7.47
2022-10-05T14:32:31.318Z,4.40
2022-10-05T14:35:07.353Z,5.82
2022-10-05T14:38:16.296Z,6.25
2022-10-05T14:40:42.943Z,5.38
2022-10-05T14:43:15.300Z,7.07
2022-10-05T14:45:59.099Z,8.10
2022-10-05T14:48:28.090Z,6.20
2022-10-05T14:51:03.285Z,4.38
2022-10-05T14:53:46.244Z,4.90
2022-10-05T14:56:17.025Z,5.25
2022-10-05T14:58:46.993Z,7.27
2022-10-05T15:01:26.125Z,5.20
2022-10-05T15:04:24.597Z,4.43
2022-10-05T15:07:13.562Z,6.10
2022-10-05T15:09:49.580Z,4.43
2022-10-05T15:12:24.768Z,5.13
2022-10-05T15:14:55.843Z,5.15
2022-10-05T15:17:30.113Z,8.70
2022-10-05T15:20:09.477Z,6.13
2022-10-05T15:22:48.868Z,5.30
2022-10-05T15:25:22.165Z,10.27
2022-10-05T15:28:21.336Z,4.30
2022-10-05T15:31:29.886Z,5.65
2022-10-05T15:34:17.706Z,7.10
2022-10-05T15:37:04.559Z,5.25
2022-10-05T15:39:55.601Z,7.47
2022-10-05T15:42:42.964Z,7.10
2022-10-05T15:45:23.411Z,5.22
2022-10-05T15:48:01.670Z,5.95
2022-10-05T15:50:35.238Z,6.75
2022-10-05T15:53:21.062Z,4.50
2022-10-05T15:56:04.586Z,6.28
2022-10-05T15:58:41.704Z,4.35
2022-10-05T16:01:47.056Z,5.80
2022-10-05T16:04:30.262Z,4.80
2022-10-05T16:07:20.487Z,11.77
2022-10-05T16:10:19.694Z,8.27
2022-10-05T16:13:14.194Z,6.28
2022-10-05T16:15:50.050Z,7.05
2022-10-05T16:18:42.919Z,3.90
2022-10-05T16:21:32.926Z,5.37
2022-10-05T16:24:24.100Z,5.70
2022-10-05T16:27:08.435Z,6.68
2022-10-05T16:30:09.443Z,5.90
2022-10-05T16:33:15.604Z,5.43
2022-10-05T16:35:57.324Z,5.13
2022-10-05T16:38:45.499Z,5.03
2022-10-05T16:41:27.961Z,8.27
2022-10-05T16:44:03.428Z,7.07
2022-10-05T16:46:43.994Z,4.07
2022-10-05T16:49:19.033Z,5.37
2022-10-05T16:51:57.792Z,7.72
2022-10-05T16:54:47.542Z,5.28
2022-10-05T16:57:20.817Z,5.82
2022-10-05T17:00:13.377Z,4.95
2022-10-05T17:02:54.528Z,6.17
2022-10-05T17:05:39.843Z,4.53
2022-10-05T17:08:15.203Z,10.98
2022-10-05T17:11:12.345Z,7.38
2022-10-05T17:13:57.735Z,6.03
2022-10-05T17:17:06.756Z,5.67
2022-10-05T17:20:06.939Z,10.60
2022-10-05T17:22:39.716Z,7.32
2022-10-05T17:25:28.457Z,6.97
2022-10-05T17:28:11.737Z,3.80
2022-10-05T17:31:05.465Z,7.23
2022-10-05T17:33:33.589Z,7.07
2022-10-05T17:36:04.278Z,5.38
2022-10-05T17:38:30.879Z,8.50
2022-10-05T17:41:00.537Z,7.53
2022-10-05T17:43:28.893Z,10.80
2022-10-05T17:46:01.637Z,6.70
2022-10-05T17:48:51.673Z,6.10
2022-10-05T17:51:56.791Z,6.88
2022-10-05T17:54:49.865Z,9.10
2022-10-05T17:57:24.977Z,7.83
2022-10-05T17:59:57.062Z,6.40
2022-10-05T18:02:36.387Z,5.75
2022-10-05T18:05:06.428Z,8.40
2022-10-05T18:07:34.860Z,6.55
2022-10-05T18:10:21.153Z,7.13
2022-10-05T18:12:50.654Z,7.90
2022-10-05T18:15:23.576Z,3.97
2022-10-05T18:17:57.371Z,5.15
2022-10-05T18:20:26.996Z,8.43
2022-10-05T18:23:14.387Z,5.70
2022-10-05T18:25:56.044Z,5.53
2022-10-05T18:29:37.023Z,6.28
2022-10-05T18:32:16.815Z,5.03
2022-10-05T18:35:06.159Z,6.65
2022-10-05T18:38:09.095Z,8.13
2022-10-05T18:41:17.389Z,5.35
2022-10-05T18:43:56.082Z,6.85
2022-10-05T18:46:34.388Z,5.95
2022-10-05T18:49:25.997Z,7.13
2022-10-05T18:52:21.560Z,6.30
2022-10-05T18:55:12.320Z,7.32
2022-10-05T18:58:06.311Z,5.45
2022-10-05T19:01:07.029Z,6.93
2022-10-05T19:04:03.242Z,8.27
2022-10-05T19:06:56.320Z,5.00
2022-10-05T19:09:59.403Z,5.20
2022-10-05T19:12:50.471Z,5.93
2022-10-05T19:15:40.499Z,7.82
2022-10-05T19:18:33.031Z,6.32
2022-10-05T19:21:10.258Z,6.37
2022-10-05T19:23:48.559Z,5.57
2022-10-05T19:26:23.572Z,6.47
2022-10-05T19:28:53.249Z,8.60
2022-10-05T19:31:40.788Z,5.85
2022-10-05T19:34:42.239Z,7.20
2022-10-05T19:37:19.265Z,9.18
2022-10-05T19:39:59.885Z,7.72
2022-10-05T19:43:14.184Z,10.18
2022-10-05T19:46:22.773Z,10.50
2022-10-05T19:48:53.139Z,4.87
2022-10-05T19:51:29.246Z,3.33
2022-10-05T19:54:21.783Z,3.58
2022-10-05T19:56:52.640Z,4.05
2022-10-05T19:59:21.465Z,3.95
2022-10-05T20:01:51.357Z,2.90
2022-10-05T20:04:45.830Z,4.97
2022-10-05T20:07:15.665Z,4.35
2022-10-05T20:09:58.024Z,2.75
2022-10-05T20:12:51.594Z,2.55
2022-10-05T20:15:44.887Z,5.70
2022-10-05T20:18:55.383Z,2.90
2022-10-05T20:21:42.782Z,3.17
2022-10-05T20:24:19.043Z,3.55
2022-10-05T20:27:02.364Z,7.85
2022-10-05T20:29:30.911Z,3.50
2022-10-05T20:31:58.072Z,5.47
2022-10-05T20:34:24.880Z,5.13
2022-10-05T20:36:52.061Z,7.53
2022-10-05T20:39:21.132Z,6.15
2022-10-05T20:41:48.006Z,7.87
2022-10-05T20:44:14.816Z,7.50
2022-10-05T20:46:41.670Z,8.50
2022-10-05T20:49:12.565Z,7.85
2022-10-05T20:51:40.021Z,2.83
2022-10-05T20:54:07.685Z,6.87
2022-10-05T20:56:34.703Z,6.13
2022-10-05T20:59:01.356Z,7.45
2022-10-05T21:01:28.921Z,5.15
2022-10-05T21:03:55.828Z,6.55
2022-10-05T21:06:22.700Z,5.17
2022-10-05T21:08:51.291Z,9.50
2022-10-05T21:11:18.081Z,6.35
2022-10-05T21:13:45.279Z,4.38
2022-10-05T21:16:13.850Z,4.22
2022-10-05T21:18:40.505Z,2.37
2022-10-05T21:21:07.588Z,6.10
2022-10-05T21:23:34.669Z,3.53
2022-10-05T21:26:01.758Z,2.92
2022-10-05T21:28:29.654Z,2.70
2022-10-05T21:30:56.457Z,2.70
2022-10-05T21:33:23.016Z,8.23
2022-10-05T21:35:49.676Z,2.03
2022-10-05T21:38:16.526Z,4.22
2022-10-05T21:40:45.309Z,2.78
2022-10-05T21:43:13.334Z,3.63
2022-10-05T21:45:41.082Z,4.72
2022-10-05T21:48:08.073Z,2.20
2022-10-05T21:50:35.282Z,2.97
2022-10-05T21:53:04.294Z,3.55
2022-10-05T21:55:33.798Z,2.73
2022-10-05T21:58:01.324Z,3.58
2022-10-05T22:00:27.908Z,5.25
2022-10-05T22:02:54.451Z,5.75
2022-10-05T22:05:21.117Z,6.50
2022-10-05T22:07:47.928Z,9.40
2022-10-05T22:10:14.963Z,5.70
2022-10-05T22:12:42.589Z,2.20
2022-10-05T22:15:09.642Z,2.63
2022-10-05T22:17:36.368Z,4.10
2022-10-05T22:20:03.713Z,1.87
2022-10-05T22:22:30.761Z,3.63
2022-10-05T22:24:57.328Z,2.65
2022-10-05T22:27:26.747Z,4.68
2022-10-05T22:29:54.157Z,5.72
2022-10-05T22:32:20.833Z,4.50
2022-10-05T22:34:47.387Z,7.43
2022-10-05T22:37:14.154Z,4.07
2022-10-05T22:39:41.460Z,5.47
2022-10-05T22:42:08.694Z,7.47
2022-10-05T22:44:35.642Z,6.33
2022-10-05T22:47:03.368Z,7.00
2022-10-05T22:49:29.930Z,6.72
2022-10-05T22:51:56.495Z,7.05
2022-10-05T22:54:27.468Z,7.72
2022-10-05T22:56:55.969Z,8.90
2022-10-05T22:59:22.683Z,7.22
2022-10-05T23:01:49.337Z,6.13
2022-10-05T23:04:16.028Z,9.85
2022-10-05T23:06:42.693Z,8.43
2022-10-05T23:09:09.255Z,9.03
2022-10-05T23:11:35.829Z,10.10
2022-10-05T23:14:02.460Z,8.60
2022-10-05T23:16:29.777Z,9.93
2022-10-05T23:18:57.449Z,10.55
2022-10-05T23:21:27.030Z,10.60
2022-10-05T23:23:53.672Z,12.02
2022-10-05T23:26:22.921Z,12.50
2022-10-05T23:28:50.181Z,8.93
2022-10-05T23:31:19.950Z,9.85
2022-10-05T23:33:46.698Z,14.30
2022-10-05T23:36:16.661Z,13.80
2022-10-05T23:38:43.802Z,13.27
2022-10-05T23:41:10.438Z,15.05
2022-10-05T23:43:37.401Z,15.68
2022-10-05T23:46:05.830Z,11.53
2022-10-05T23:48:33.161Z,18.52
2022-10-05T23:51:00.021Z,17.75
2022-10-05T23:53:27.124Z,12.07
2022-10-05T23:55:53.950Z,11.77
2022-10-05T23:58:21.613Z,9.97
